Time;durP1;ratioP1;P1;durP2;ratioP2;P2;SDS_P1;SDS_P2;PMS_P1;PMS_P2;Temp;Humidity;BMP_temperature;BMP_pressure;BME280_temperature;BME280_humidity;BME280_pressure;Samples;Min_cycle;Max_cycle;Signal;HPM_P1;HPM_P2
2022/09/19 00:00:07;;;;;;;6.13;4.47;;;;;;;8.05;93.92;97895.61;2174481;81;20910;-81
2022/09/19 00:03:07;;;;;;;22.97;14.27;;;;;;;8.07;94.10;97891.28;2173995;81;20960;-81
2022/09/19 00:06:09;;;;;;;10.80;6.57;;;;;;;8.06;93.98;97889.55;2173745;81;20964;-82
2022/09/19 00:09:09;;;;;;;9.50;5.37;;;;;;;8.11;94.18;97888.27;2173811;81;21276;-81
2022/09/19 00:12:08;;;;;;;6.83;4.60;;;;;;;8.13;94.33;97888.72;2173916;81;21004;-81
2022/09/19 00:15:09;;;;;;;7.23;4.87;;;;;;;8.17;94.30;97891.78;2173956;81;21027;-81
2022/09/19 00:18:09;;;;;;;8.53;4.60;;;;;;;8.23;94.46;97892.25;2173654;81;21039;-82
2022/09/19 00:21:09;;;;;;;7.57;4.77;;;;;;;8.27;94.42;97889.67;2173897;81;20955;-81
2022/09/19 00:27:29;;;;;;;11.77;4.33;;;;;;;8.29;94.52;97887.95;2173387;82;21337;-82
2022/09/19 00:30:29;;;;;;;6.93;4.20;;;;;;;8.32;94.82;97884.50;2173636;81;20945;-82
2022/09/19 00:33:30;;;;;;;4.53;3.90;;;;;;;8.35;94.72;97884.98;2173230;81;20981;-81
2022/09/19 00:36:30;;;;;;;9.77;5.27;;;;;;;8.33;94.71;97890.17;2173097;81;20936;-83
2022/09/19 00:39:30;;;;;;;8.07;5.30;;;;;;;8.35;94.90;97889.75;2173250;81;20941;-82
2022/09/19 00:42:31;;;;;;;10.07;5.30;;;;;;;8.36;95.03;97890.19;2176395;81;21016;-81
2022/09/19 00:45:31;;;;;;;9.67;6.03;;;;;;;8.37;95.17;97884.56;2189415;81;20957;-81
2022/09/19 00:48:32;;;;;;;7.70;5.80;;;;;;;8.35;95.41;97883.25;2190127;81;20988;-82
2022/09/19 00:51:32;;;;;;;6.37;4.53;;;;;;;8.33;95.81;97885.37;2190105;81;21265;-82
2022/09/19 00:54:32;;;;;;;8.20;5.83;;;;;;;8.31;95.98;97886.23;2189956;81;20941;-81
2022/09/19 00:57:33;;;;;;;6.53;5.00;;;;;;;8.29;96.08;97887.95;2190212;81;21024;-82
2022/09/19 01:00:34;;;;;;;7.63;5.07;;;;;;;8.31;96.17;97890.13;2189968;81;20927;-82
2022/09/19 01:03:33;;;;;;;5.27;4.73;;;;;;;8.29;96.32;97887.95;2190093;81;20952;-83
2022/09/19 01:06:35;;;;;;;7.33;4.47;;;;;;;8.28;96.36;97887.95;2189834;81;20996;-82
2022/09/19 01:09:38;;;;;;;8.27;5.70;;;;;;;8.28;96.36;97887.95;2190088;81;20940;-81
2022/09/19 01:12:38;;;;;;;5.70;4.77;;;;;;;8.28;96.53;97889.24;2190244;81;20940;-82
2022/09/19 01:15:38;;;;;;;6.50;4.43;;;;;;;8.26;96.33;97895.73;2190279;81;20972;-82
2022/09/19 01:18:38;;;;;;;6.23;4.27;;;;;;;8.27;97.03;97887.08;2190085;81;21418;-82
2022/09/19 01:21:39;;;;;;;5.60;4.00;;;;;;;8.24;96.94;97888.78;2190039;81;20948;-82
2022/09/19 01:24:40;;;;;;;6.93;3.93;;;;;;;8.18;97.56;97890.92;2190372;81;20961;-82
2022/09/19 01:27:40;;;;;;;6.03;3.77;;;;;;;8.16;97.67;97889.17;2190240;81;21347;-82
2022/09/19 01:30:40;;;;;;;6.40;3.13;;;;;;;8.12;98.39;97892.18;2189948;81;20961;-82
2022/09/19 01:33:41;;;;;;;5.17;3.60;;;;;;;8.12;98.51;97886.11;2190361;81;20949;-81
2022/09/19 01:36:43;;;;;;;4.27;3.60;;;;;;;8.10;97.92;97882.20;2190096;81;20940;-82
2022/09/19 01:39:41;;;;;;;3.87;3.43;;;;;;;8.09;98.12;97885.66;2190122;81;20932;-81
2022/09/19 01:42:42;;;;;;;4.60;3.67;;;;;;;8.07;97.95;97884.78;2190033;81;21410;-82
2022/09/19 01:45:42;;;;;;;7.80;3.40;;;;;;;8.07;98.03;97882.19;2189665;81;20965;-83
2022/09/19 01:48:42;;;;;;;4.73;3.10;;;;;;;8.05;98.13;97887.80;2190258;81;21028;-82
2022/09/19 01:51:43;;;;;;;4.57;2.83;;;;;;;8.05;98.32;97892.13;2190181;81;20996;-81
2022/09/19 01:54:43;;;;;;;6.00;2.73;;;;;;;8.04;98.25;97886.06;2190464;81;20967;-83
2022/09/19 01:57:44;;;;;;;4.47;2.90;;;;;;;8.04;98.12;97883.89;2190273;81;20956;-81
2022/09/19 02:00:44;;;;;;;3.10;2.60;;;;;;;8.04;97.86;97888.66;2190210;81;20932;-82
2022/09/19 02:03:46;;;;;;;3.50;2.57;;;;;;;8.06;98.04;97886.08;2190065;81;20968;-81
2022/09/19 02:06:46;;;;;;;3.67;2.63;;;;;;;8.07;97.83;97891.72;2190630;81;21304;-82
2022/09/19 02:09:45;;;;;;;3.17;2.30;;;;;;;8.05;97.93;97889.11;2190739;81;20933;-82
2022/09/19 02:12:46;;;;;;;3.47;2.30;;;;;;;8.04;97.88;97889.09;2190352;81;20957;-83
2022/09/19 02:15:46;;;;;;;2.77;2.30;;;;;;;8.05;97.92;97893.00;2190080;81;20999;-81
2022/09/19 02:18:49;;;;;;;3.17;2.50;;;;;;;8.05;97.84;97896.03;2189771;81;21370;-83
2022/09/19 02:21:48;;;;;;;4.60;2.20;;;;;;;8.07;97.76;97897.78;2190102;81;20944;-82
2022/09/19 02:24:47;;;;;;;4.13;2.30;;;;;;;8.05;97.74;97893.44;2190164;81;20925;-83
2022/09/19 02:27:49;;;;;;;5.73;3.23;;;;;;;8.05;97.62;97899.50;2190170;81;20929;-81
2022/09/19 02:30:48;;;;;;;5.00;3.40;;;;;;;8.06;98.08;97898.64;2190094;81;20967;-83
2022/09/19 02:33:49;;;;;;;6.60;3.87;;;;;;;8.09;98.06;97896.06;2189654;81;21075;-81
2022/09/19 02:36:50;;;;;;;8.90;4.03;;;;;;;8.15;97.87;97899.13;2189766;81;20936;-83
2022/09/19 02:39:49;;;;;;;7.30;4.43;;;;;;;8.18;98.16;97893.95;2189773;81;20956;-82
2022/09/19 02:42:50;;;;;;;15.03;4.37;;;;;;;8.25;98.28;97904.39;2187337;81;21057;-82
2022/09/19 02:45:51;;;;;;;9.10;4.20;;;;;;;8.27;97.83;97899.20;2173198;81;21313;-82
2022/09/19 02:48:51;;;;;;;4.63;3.80;;;;;;;8.24;97.58;97901.36;2172967;81;20973;-81
2022/09/19 02:51:51;;;;;;;7.90;3.37;;;;;;;8.23;97.43;97903.95;2173099;81;20980;-81
2022/09/19 02:54:53;;;;;;;11.53;4.67;;;;;;;8.24;97.52;97900.05;2172370;81;21436;-82
2022/09/19 02:57:53;;;;;;;15.10;4.33;;;;;;;8.26;97.29;97900.94;2172440;81;20952;-83
2022/09/19 03:00:55;;;;;;;5.70;3.67;;;;;;;8.27;97.17;97902.67;2173119;82;21051;-82
2022/09/19 03:04:14;;;;;;;9.90;5.07;;;;;;;8.28;96.95;97905.71;2173278;81;20949;-83
2022/09/19 03:07:14;;;;;;;10.83;7.07;;;;;;;8.28;96.98;97900.94;2173305;81;20905;-83
2022/09/19 03:10:14;;;;;;;9.33;6.10;;;;;;;8.27;96.82;97907.00;2173273;81;20945;-83
2022/09/19 03:13:22;;;;;;;7.90;4.50;;;;;;;8.27;96.82;97913.08;2171583;82;21459;-83
2022/09/19 03:16:15;;;;;;;8.70;3.93;;;;;;;8.25;96.76;97915.23;2170664;81;21091;-83
2022/09/19 03:19:16;;;;;;;10.10;4.40;;;;;;;8.22;96.81;97913.48;2171225;81;21016;-82
2022/09/19 03:22:16;;;;;;;8.20;4.70;;;;;;;8.22;96.68;97916.50;2171843;81;21483;-84
2022/09/19 03:25:16;;;;;;;14.73;4.77;;;;;;;8.17;96.80;97916.91;2171674;81;21065;-82
2022/09/19 03:28:19;;;;;;;7.93;4.67;;;;;;;8.19;97.14;97918.66;2173273;81;20937;-82
2022/09/19 03:31:17;;;;;;;17.07;5.43;;;;;;;8.22;97.28;97923.00;2173348;82;21036;-83
2022/09/19 03:34:19;;;;;;;8.67;4.90;;;;;;;8.30;97.62;97920.02;2173415;81;20976;-80
2022/09/19 03:37:18;;;;;;;8.00;4.77;;;;;;;8.32;97.12;97927.41;2173624;81;21005;-83
2022/09/19 03:40:22;;;;;;;11.30;5.60;;;;;;;8.58;100.00;97926.28;2173704;81;21237;-86
2022/09/19 03:43:20;;;;;;;7.57;5.10;;;;;;;10.46;100.00;97923.61;2173394;81;21001;-82
2022/09/19 03:46:21;;;;;;;9.45;5.40;;;;;;;11.57;89.67;97920.95;2173526;81;20949;-82
2022/09/19 03:49:21;;;;;;;7.33;5.28;;;;;;;10.77;88.02;97922.64;2173860;81;20969;-83
2022/09/19 03:52:21;;;;;;;12.68;5.60;;;;;;;10.18;88.39;97930.12;2172057;81;21025;-84
2022/09/19 03:55:22;;;;;;;8.73;5.80;;;;;;;9.64;88.75;97924.48;2170276;81;21091;-84
2022/09/19 03:58:23;;;;;;;7.97;5.37;;;;;;;9.22;89.64;97937.84;2170559;81;20976;-83
2022/09/19 04:01:22;;;;;;;5.83;5.20;;;;;;;8.95;90.46;97932.55;2170687;81;21063;-82
2022/09/19 04:04:23;;;;;;;9.07;4.93;;;;;;;8.76;91.37;97930.30;2170942;82;20991;-83
2022/09/19 04:07:25;;;;;;;11.17;6.17;;;;;;;8.61;92.07;97940.60;2171139;81;21051;-84
2022/09/19 04:10:24;;;;;;;16.20;11.50;;;;;;;8.44;92.51;97937.03;2172218;81;20957;-84
2022/09/19 04:13:24;;;;;;;9.00;5.90;;;;;;;8.33;93.18;97936.07;2173103;81;20984;-83
2022/09/19 04:16:25;;;;;;;9.37;6.00;;;;;;;8.29;93.69;97935.19;2172330;81;20999;-83
2022/09/19 04:19:26;;;;;;;10.17;6.07;;;;;;;8.25;94.01;97934.30;2170997;81;21008;-83
2022/09/19 04:22:25;;;;;;;16.37;7.30;;;;;;;8.24;94.19;97929.08;2171078;81;20921;-83
2022/09/19 04:25:28;;;;;;;13.67;6.27;;;;;;;8.25;94.54;97935.59;2171281;81;20949;-83
2022/09/19 04:28:26;;;;;;;17.97;7.00;;;;;;;8.28;94.38;97933.02;2171448;81;21279;-83
2022/09/19 04:31:27;;;;;;;10.73;6.23;;;;;;;8.29;94.82;97934.75;2171610;81;20961;-83
2022/09/19 04:34:28;;;;;;;15.10;7.00;;;;;;;8.32;94.64;97936.50;2171533;81;20992;-83
2022/09/19 04:37:29;;;;;;;13.40;6.17;;;;;;;8.35;94.44;97934.38;2171637;81;20952;-84
2022/09/19 04:40:28;;;;;;;12.27;7.43;;;;;;;8.40;94.59;97946.55;2171142;81;20983;-84
2022/09/19 04:43:28;;;;;;;11.03;7.07;;;;;;;8.40;94.28;97948.28;2174883;81;21036;-84
2022/09/19 04:46:32;;;;;;;13.67;6.73;;;;;;;8.42;94.61;97950.03;2187738;81;21003;-84
2022/09/19 04:49:39;;;;;;;7.65;6.62;;;;;;;8.44;94.41;97966.52;2171688;81;21106;-84
2022/09/19 04:52:38;;;;;;;6.53;5.90;;;;;;;8.42;94.34;97961.73;2186724;81;21019;-83
2022/09/19 04:55:37;;;;;;;8.77;5.97;;;;;;;8.43;94.39;97969.98;2186533;81;20995;-82
2022/09/19 04:58:40;;;;;;;18.63;8.60;;;;;;;8.46;94.51;97974.33;2188393;81;20928;-81
2022/09/19 05:01:41;;;;;;;13.47;7.20;;;;;;;8.48;95.20;97972.61;2187982;81;21203;-81
2022/09/19 05:04:41;;;;;;;11.43;7.30;;;;;;;8.56;95.06;97977.42;2187224;81;20964;-82
2022/09/19 05:07:41;;;;;;;10.33;7.57;;;;;;;8.60;94.80;97983.95;2186765;81;20963;-82
2022/09/19 05:10:42;;;;;;;10.77;6.80;;;;;;;8.69;94.45;97983.17;2186827;81;20995;-82
2022/09/19 05:13:42;;;;;;;8.43;6.27;;;;;;;8.71;93.83;97984.05;2186095;81;21321;-80
2022/09/19 05:16:43;;;;;;;10.57;7.00;;;;;;;8.72;93.56;97983.61;2188143;81;21027;-81
2022/09/19 05:19:44;;;;;;;7.80;5.60;;;;;;;8.71;93.46;97989.68;2187189;81;21081;-81
2022/09/19 05:22:44;;;;;;;12.17;6.17;;;;;;;8.74;93.45;97989.27;2186606;81;20948;-80
2022/09/19 05:25:44;;;;;;;9.57;5.90;;;;;;;8.76;93.45;97992.75;2186813;81;21351;-82
2022/09/19 05:28:47;;;;;;;9.43;4.73;;;;;;;8.84;93.25;97997.56;2186871;81;20991;-81
2022/09/19 05:31:47;;;;;;;9.70;5.33;;;;;;;8.82;92.32;98003.62;2186478;81;20960;-81
2022/09/19 05:34:48;;;;;;;5.43;4.60;;;;;;;8.81;92.69;98000.58;2186626;81;20999;-83
2022/09/19 05:37:48;;;;;;;7.73;4.40;;;;;;;8.81;92.52;98002.75;2186013;81;21332;-81
2022/09/19 05:40:49;;;;;;;7.60;5.50;;;;;;;8.88;92.05;98005.82;2185635;81;20995;-81
2022/09/19 05:43:50;;;;;;;10.33;6.30;;;;;;;8.88;92.05;98005.82;2186470;81;21450;-81
2022/09/19 05:46:52;;;;;;;7.57;6.80;;;;;;;8.89;91.69;98017.97;2186412;81;20960;-81
2022/09/19 05:49:50;;;;;;;10.93;6.40;;;;;;;8.88;91.66;98020.14;2186720;81;21356;-80
2022/09/19 05:56:09;;;;;;;7.20;4.83;;;;;;;8.86;91.44;98022.29;2186456;81;21442;-80
2022/09/19 05:59:10;;;;;;;10.07;4.73;;;;;;;8.90;91.83;98023.62;2186228;81;20964;-80
2022/09/19 06:02:10;;;;;;;6.40;4.47;;;;;;;8.98;91.41;98024.09;2186017;81;20975;-80
2022/09/19 06:05:11;;;;;;;5.37;4.17;;;;;;;9.00;90.93;98030.17;2186301;81;21355;-80
2022/09/19 06:08:11;;;;;;;10.35;5.20;;;;;;;9.06;90.35;98031.50;2185881;81;21051;-80
2022/09/19 06:11:11;;;;;;;4.90;4.07;;;;;;;9.10;90.52;98028.92;2185650;81;21046;-81
2022/09/19 06:14:15;;;;;;;7.20;4.50;;;;;;;9.08;90.11;98031.08;2186173;81;22023;-81
2022/09/19 06:17:16;;;;;;;5.47;4.10;;;;;;;9.06;90.73;98035.41;2186107;81;21019;-80
2022/09/19 06:20:16;;;;;;;7.80;5.40;;;;;;;9.06;90.00;98040.61;2185224;81;21067;-81
2022/09/19 06:23:17;;;;;;;5.87;4.30;;;;;;;9.10;90.79;98043.67;2186511;81;21019;-82
2022/09/19 06:26:17;;;;;;;7.13;5.10;;;;;;;9.20;90.50;98046.33;2186185;81;21075;-81
2022/09/19 06:29:17;;;;;;;6.10;3.57;;;;;;;9.34;90.13;98055.50;2186137;81;20999;-81
2022/09/19 06:32:18;;;;;;;9.85;3.60;;;;;;;9.42;89.63;98053.80;2186788;81;20983;-81
2022/09/19 06:35:18;;;;;;;6.35;3.62;;;;;;;9.45;88.59;98060.31;2187300;81;21003;-80
2022/09/19 06:38:19;;;;;;;6.28;3.50;;;;;;;9.46;88.35;98057.28;2186490;81;21056;-80
2022/09/19 06:41:19;;;;;;;5.30;3.65;;;;;;;9.44;87.91;98060.31;2187407;81;21000;-79
2022/09/19 06:44:20;;;;;;;9.63;3.95;;;;;;;9.44;87.90;98063.78;2187433;81;21003;-80
2022/09/19 06:47:20;;;;;;;7.40;3.50;;;;;;;9.48;87.67;98067.27;2186963;81;20925;-79
2022/09/19 06:50:21;;;;;;;6.75;3.75;;;;;;;9.45;87.64;98070.73;2186177;81;21035;-80
2022/09/19 06:53:21;;;;;;;8.40;3.40;;;;;;;9.50;86.68;98078.14;2186795;81;20968;-81
2022/09/19 06:56:21;;;;;;;6.37;3.30;;;;;;;9.49;86.20;98077.70;2187398;81;20991;-80
2022/09/19 06:59:21;;;;;;;5.85;4.08;;;;;;;9.47;86.89;98083.34;2186928;81;21395;-81
2022/09/19 07:02:22;;;;;;;7.97;3.60;;;;;;;9.46;86.13;98081.59;2187665;81;21000;-79
2022/09/19 07:05:22;;;;;;;5.90;3.67;;;;;;;9.48;86.62;98088.98;2186133;81;21023;-81
2022/09/19 07:08:23;;;;;;;6.97;4.03;;;;;;;9.53;86.83;98090.30;2187204;81;21055;-85
2022/09/19 07:11:24;;;;;;;9.80;3.93;;;;;;;9.57;86.75;98098.17;2187197;81;21052;-84
2022/09/19 07:14:24;;;;;;;7.50;3.55;;;;;;;9.56;85.98;98093.83;2186690;81;21070;-83
2022/09/19 07:17:24;;;;;;;7.07;3.90;;;;;;;9.48;86.03;98099.84;2186976;81;20921;-82
2022/09/19 07:20:24;;;;;;;5.25;2.92;;;;;;;9.46;86.67;98094.63;2187142;81;21055;-81
2022/09/19 07:23:25;;;;;;;9.90;3.57;;;;;;;9.44;86.12;98101.55;2187082;81;20936;-83
2022/09/19 07:26:25;;;;;;;4.73;3.37;;;;;;;9.40;86.33;98106.75;2187497;81;21055;-82
2022/09/19 07:29:26;;;;;;;6.00;3.87;;;;;;;9.41;86.37;98105.45;2187623;81;20987;-80
2022/09/19 07:32:26;;;;;;;8.00;4.63;;;;;;;9.43;86.31;98114.58;2187245;81;20968;-81
2022/09/19 07:35:29;;;;;;;7.17;3.98;;;;;;;9.41;86.20;98118.48;2186363;81;21055;-80
2022/09/19 07:38:28;;;;;;;6.40;3.42;;;;;;;9.42;86.10;98119.34;2186882;81;21407;-82
2022/09/19 07:41:27;;;;;;;6.72;3.52;;;;;;;9.48;85.99;98122.85;2187201;81;20984;-83
2022/09/19 07:44:28;;;;;;;8.98;4.15;;;;;;;9.70;86.05;98124.27;2182324;81;20984;-82
2022/09/19 07:47:28;;;;;;;5.15;3.00;;;;;;;9.95;85.26;98127.40;2170203;81;21395;-79
2022/09/19 07:50:28;;;;;;;4.97;2.80;;;;;;;10.14;84.25;98134.40;2170498;81;21075;-82
2022/09/19 07:53:29;;;;;;;5.95;2.65;;;;;;;10.09;83.13;98131.34;2170024;81;21208;-82
2022/09/19 07:56:29;;;;;;;5.78;2.35;;;;;;;10.01;82.26;98139.15;2169933;81;21403;-83
2022/09/19 07:59:29;;;;;;;3.22;2.15;;;;;;;9.95;82.57;98136.52;2170269;81;20925;-82
2022/09/19 08:02:33;;;;;;;3.35;2.40;;;;;;;10.02;82.49;98133.50;2169604;82;20969;-83
2022/09/19 08:05:34;;;;;;;5.75;2.40;;;;;;;10.06;81.71;98142.64;2170076;81;20949;-81
2022/09/19 08:08:34;;;;;;;4.55;1.98;;;;;;;10.15;79.90;98141.79;2169808;81;21419;-81
2022/09/19 08:11:36;;;;;;;7.15;2.40;;;;;;;10.17;79.44;98146.58;2158174;82;21429;-83
2022/09/19 08:14:37;;;;;;;5.17;2.52;;;;;;;10.09;79.09;98145.25;2170148;81;21028;-80
2022/09/19 08:17:37;;;;;;;7.20;2.72;;;;;;;10.04;79.53;98153.93;2170221;81;20992;-79
2022/09/19 08:20:37;;;;;;;7.62;5.00;;;;;;;10.23;80.93;98157.05;2169576;81;21016;-79
2022/09/19 08:23:38;;;;;;;4.62;2.50;;;;;;;10.77;79.46;98152.36;2168444;81;21385;-80
2022/09/19 08:26:38;;;;;;;6.05;2.42;;;;;;;11.18;78.52;98146.23;2168564;81;20968;-80
2022/09/19 08:29:39;;;;;;;3.20;1.92;;;;;;;11.64;73.52;98144.84;2170509;81;20977;-81
2022/09/19 08:32:39;;;;;;;3.95;2.10;;;;;;;12.05;75.62;98144.69;2170422;81;20941;-80
2022/09/19 08:35:41;;;;;;;3.40;2.20;;;;;;;12.51;72.91;98138.77;2170013;82;21373;-79
2022/09/19 08:38:40;;;;;;;3.87;2.08;;;;;;;12.42;72.59;98134.90;2169824;81;20993;-80
2022/09/19 08:41:41;;;;;;;6.50;2.08;;;;;;;12.58;70.67;98136.53;2169472;81;20953;-79
2022/09/19 08:44:41;;;;;;;5.95;1.85;;;;;;;12.67;71.82;98138.21;2171825;81;21412;-79
2022/09/19 08:47:42;;;;;;;6.58;2.30;;;;;;;12.55;70.67;98144.41;2185592;81;20991;-80
2022/09/19 08:50:42;;;;;;;3.87;2.20;;;;;;;12.28;70.81;98137.61;2185391;81;21039;-80
2022/09/19 08:53:43;;;;;;;4.00;2.35;;;;;;;12.10;70.71;98147.70;2183588;81;20956;-80
2022/09/19 08:56:43;;;;;;;5.47;2.15;;;;;;;12.25;71.45;98147.23;2184268;81;20972;-79
2022/09/19 08:59:44;;;;;;;4.75;2.12;;;;;;;12.24;70.48;98152.03;2186547;81;21024;-80
2022/09/19 09:02:44;;;;;;;3.27;1.87;;;;;;;12.20;70.55;98154.23;2186782;81;20972;-79
2022/09/19 09:05:44;;;;;;;5.00;2.27;;;;;;;12.11;71.78;98150.76;2186686;81;21011;-80
2022/09/19 09:08:45;;;;;;;3.83;2.20;;;;;;;12.18;71.42;98152.94;2186561;81;21705;-80
2022/09/19 09:11:48;;;;;;;6.25;2.70;;;;;;;12.21;71.91;98150.73;2186468;81;21038;-79
2022/09/19 09:14:46;;;;;;;6.53;3.00;;;;;;;12.05;72.62;98156.02;2185985;81;21036;-78
2022/09/19 09:17:47;;;;;;;4.30;2.67;;;;;;;11.92;72.89;98157.39;2186022;81;21282;-79
2022/09/19 09:20:46;;;;;;;3.83;2.50;;;;;;;11.88;73.84;98160.90;2185639;81;21439;-79
2022/09/19 09:23:47;;;;;;;10.75;2.55;;;;;;;11.96;72.47;98162.60;2185504;81;20960;-79
2022/09/19 09:26:47;;;;;;;2.98;2.00;;;;;;;12.06;71.78;98166.91;2182908;81;20996;-79
2022/09/19 09:29:48;;;;;;;3.10;1.82;;;;;;;12.29;71.78;98167.27;2183322;81;20968;-79
2022/09/19 09:32:48;;;;;;;6.67;2.30;;;;;;;12.48;70.92;98162.34;2184633;81;22115;-79
2022/09/19 09:35:48;;;;;;;4.25;2.35;;;;;;;12.50;68.33;98167.13;2185222;81;21039;-79
2022/09/19 09:38:52;;;;;;;3.98;2.40;;;;;;;12.49;69.54;98165.39;2184834;81;20959;-78
2022/09/19 09:41:49;;;;;;;4.87;2.62;;;;;;;12.53;68.39;98168.41;2184987;81;21301;-78
2022/09/19 09:44:51;;;;;;;5.08;2.35;;;;;;;12.78;69.73;98164.31;2185758;81;21027;-81
2022/09/19 09:47:50;;;;;;;7.62;2.92;;;;;;;13.12;67.42;98166.23;2186516;81;22037;-81
2022/09/19 09:50:51;;;;;;;8.15;2.98;;;;;;;13.47;68.38;98155.44;2186521;81;21016;-81
2022/09/19 09:53:51;;;;;;;8.23;3.10;;;;;;;13.63;68.13;98157.88;2186416;81;20929;-81
2022/09/19 09:56:51;;;;;;;6.25;2.90;;;;;;;13.76;68.61;98165.60;2186610;81;20967;-81
2022/09/19 10:06:30;;;;;;;2.45;2.02;;;;;;;12.26;70.49;98186.47;2187346;81;20968;-85
2022/09/19 10:09:30;;;;;;;2.92;1.98;;;;;;;11.74;72.38;98183.14;2187259;81;20971;-81
2022/09/19 10:12:32;;;;;;;4.10;2.27;;;;;;;11.44;74.43;98181.05;2187158;81;21438;-82
2022/09/19 10:15:31;;;;;;;3.37;2.37;;;;;;;11.34;76.03;98183.25;2186223;81;21042;-79
2022/09/19 10:18:33;;;;;;;3.10;2.83;;;;;;;11.36;75.67;98185.42;2186364;81;20953;-80
2022/09/19 10:21:32;;;;;;;3.55;2.30;;;;;;;11.49;76.49;98188.44;2185831;81;21098;-81
2022/09/19 10:24:32;;;;;;;3.98;2.70;;;;;;;11.92;75.34;98186.16;2186190;81;21352;-81
2022/09/19 10:27:33;;;;;;;3.42;2.83;;;;;;;12.27;76.28;98182.10;2186417;81;20999;-80
2022/09/19 10:30:33;;;;;;;1.82;1.55;;;;;;;12.43;74.58;98185.06;2186449;81;21015;-80
2022/09/19 10:33:38;;;;;;;2.40;1.40;;;;;;;12.43;73.16;98183.75;2187290;81;20956;-80
2022/09/19 10:36:34;;;;;;;4.10;1.60;;;;;;;12.37;73.59;98183.34;2187373;81;20971;-80
2022/09/19 10:39:35;;;;;;;4.33;1.80;;;;;;;12.48;74.53;98188.52;2185969;81;20988;-79
2022/09/19 10:42:36;;;;;;;1.65;1.55;;;;;;;12.58;73.38;98196.75;2185911;81;20956;-80
2022/09/19 10:45:36;;;;;;;4.87;2.58;;;;;;;12.60;73.75;98195.42;2186579;81;20979;-78
2022/09/19 10:48:35;;;;;;;5.08;2.60;;;;;;;12.74;73.54;98194.45;2185635;81;20968;-78
2022/09/19 10:51:36;;;;;;;9.58;3.08;;;;;;;12.79;73.18;98200.09;2184181;81;21219;-77
2022/09/19 10:54:36;;;;;;;4.70;2.40;;;;;;;12.76;73.04;98195.31;2183366;81;21003;-77
2022/09/19 10:57:40;;;;;;;2.45;1.50;;;;;;;12.74;73.26;98197.06;2183684;81;21233;-77
2022/09/19 11:00:37;;;;;;;3.70;1.67;;;;;;;12.63;71.86;98196.72;2184888;81;20967;-78
2022/09/19 11:03:39;;;;;;;4.15;2.90;;;;;;;12.38;72.38;98198.61;2186407;81;21367;-80
2022/09/19 11:06:39;;;;;;;2.83;2.33;;;;;;;12.32;74.04;98192.11;2187809;81;20983;-79
2022/09/19 11:09:38;;;;;;;3.77;1.80;;;;;;;12.46;73.67;98192.02;2187319;81;20932;-80
2022/09/19 11:12:41;;;;;;;3.47;2.42;;;;;;;12.32;73.08;98190.80;2187402;81;20972;-80
2022/09/19 11:15:39;;;;;;;2.42;2.00;;;;;;;12.27;72.99;98192.13;2186759;81;21637;-79
2022/09/19 11:18:40;;;;;;;3.37;2.40;;;;;;;12.43;72.94;98191.61;2185329;81;20956;-80
2022/09/19 11:21:41;;;;;;;3.83;2.10;;;;;;;12.69;72.81;98192.75;2184383;81;21329;-79
2022/09/19 11:24:40;;;;;;;3.35;2.47;;;;;;;13.00;73.51;98194.69;2185851;81;20960;-79
2022/09/19 11:27:41;;;;;;;5.37;2.60;;;;;;;13.31;71.95;98198.84;2184621;81;21027;-79
2022/09/19 11:30:41;;;;;;;2.10;1.82;;;;;;;13.43;69.64;98200.92;2184621;81;21002;-78
2022/09/19 11:33:42;;;;;;;4.15;2.17;;;;;;;13.20;67.69;98202.45;2185629;81;21080;-78
2022/09/19 11:36:44;;;;;;;5.25;2.45;;;;;;;13.00;69.13;98203.45;2186588;81;21031;-79
2022/09/19 11:39:42;;;;;;;6.28;2.67;;;;;;;12.89;70.09;98197.83;2185559;81;21670;-79
2022/09/19 11:42:44;;;;;;;3.47;2.25;;;;;;;12.90;68.33;98200.88;2186399;81;20960;-79
2022/09/19 11:45:43;;;;;;;2.90;2.40;;;;;;;12.75;69.36;98200.55;2178752;81;21671;-78
2022/09/19 11:48:45;;;;;;;2.70;2.22;;;;;;;12.62;69.54;98200.21;2167464;81;21217;-78
2022/09/19 11:51:49;;;;;;;3.87;1.92;;;;;;;12.78;69.43;98204.46;2167094;81;21094;-77
2022/09/19 11:54:45;;;;;;;2.95;1.87;;;;;;;13.02;67.47;98203.44;2165788;81;22061;-77
2022/09/19 11:57:45;;;;;;;4.95;4.47;;;;;;;12.94;67.65;98197.36;2166267;81;21515;-80
2022/09/19 12:00:47;;;;;;;2.42;1.87;;;;;;;12.84;67.29;98206.17;2168620;81;21368;-78
2022/09/19 12:03:47;;;;;;;4.37;1.55;;;;;;;12.62;66.72;98204.14;2166950;81;20984;-78
2022/09/19 12:06:47;;;;;;;2.85;1.90;;;;;;;12.32;67.26;98212.60;2167164;81;20965;-80
2022/09/19 12:09:47;;;;;;;2.47;1.50;;;;;;;12.48;68.51;98210.77;2166954;81;20984;-80
2022/09/19 12:12:48;;;;;;;2.67;1.42;;;;;;;12.79;66.16;98214.50;2169238;81;21575;-80
2022/09/19 12:15:48;;;;;;;1.47;1.10;;;;;;;12.73;65.29;98212.35;2169098;81;21840;-80
2022/09/19 12:18:50;;;;;;;2.02;1.35;;;;;;;12.94;63.25;98211.77;2169417;81;20941;-80
2022/09/19 12:21:48;;;;;;;2.83;1.25;;;;;;;13.29;62.71;98202.36;2168596;81;21056;-80
2022/09/19 12:24:52;;;;;;;2.02;1.40;;;;;;;13.49;62.88;98199.11;2167176;81;20937;-78
2022/09/19 12:27:52;;;;;;;1.85;1.42;;;;;;;13.66;60.39;98210.30;2166852;81;20925;-78
2022/09/19 12:30:58;;;;;;;3.42;1.40;;;;;;;13.61;61.12;98221.72;2163946;81;21416;-78
2022/09/19 12:33:53;;;;;;;3.98;1.75;;;;;;;13.49;60.96;98218.77;2164259;81;21262;-79
2022/09/19 12:36:55;;;;;;;1.87;1.22;;;;;;;13.55;61.70;98221.78;2165435;81;20996;-78
2022/09/19 12:39:54;;;;;;;2.10;1.37;;;;;;;13.53;60.32;98212.61;2168815;81;21048;-79
2022/09/19 12:42:54;;;;;;;3.58;2.70;;;;;;;13.57;60.54;98206.90;2169321;81;20995;-78
2022/09/19 12:45:55;;;;;;;5.03;3.50;;;;;;;13.59;59.61;98210.37;2170429;81;20981;-78
2022/09/19 12:48:56;;;;;;;2.58;1.75;;;;;;;13.62;59.46;98214.27;2169881;82;20972;-78
2022/09/19 12:51:56;;;;;;;1.80;1.50;;;;;;;13.53;58.75;98213.06;2171424;81;21024;-77
2022/09/19 12:54:57;;;;;;;1.65;1.50;;;;;;;13.55;60.45;98209.98;2170225;81;20968;-78
2022/09/19 12:57:57;;;;;;;3.10;1.20;;;;;;;13.82;59.76;98207.06;2168532;81;21226;-78
2022/09/19 13:00:57;;;;;;;3.65;1.60;;;;;;;13.84;58.61;98209.66;2168891;81;21035;-78
2022/09/19 13:04:02;;;;;;;2.33;1.42;;;;;;;13.47;59.53;98215.73;2168855;81;20956;-78
2022/09/19 13:06:59;;;;;;;1.70;1.50;;;;;;;13.24;60.68;98218.13;2161301;82;20967;-79
2022/09/19 13:10:00;;;;;;;2.98;1.98;;;;;;;13.20;62.14;98229.97;2169159;81;20969;-78
2022/09/19 13:13:00;;;;;;;2.20;2.00;;;;;;;13.39;62.51;98221.05;2168746;81;20972;-79
2022/09/19 13:16:01;;;;;;;2.27;1.40;;;;;;;13.35;61.43;98226.77;2168525;81;21043;-78
2022/09/19 13:25:21;;;;;;;5.33;4.37;;;;;;;13.52;61.40;98225.30;2166974;81;21578;-78
2022/09/19 13:28:21;;;;;;;2.52;2.12;;;;;;;13.59;60.23;98232.22;2167101;81;21008;-78
2022/09/19 13:31:21;;;;;;;3.62;2.45;;;;;;;13.42;59.84;98234.13;2167865;81;21266;-78
2022/09/19 13:34:23;;;;;;;2.33;1.52;;;;;;;13.15;61.42;98234.34;2167852;81;20976;-78
2022/09/19 13:37:22;;;;;;;2.40;1.80;;;;;;;12.91;60.14;98244.53;2167447;81;21008;-76
2022/09/19 13:40:23;;;;;;;4.58;1.82;;;;;;;12.78;60.87;98248.12;2168986;81;21035;-78
2022/09/19 13:43:23;;;;;;;4.22;2.50;;;;;;;12.86;60.61;98247.63;2169618;81;20976;-78
2022/09/19 13:46:23;;;;;;;3.50;2.27;;;;;;;12.91;61.16;98249.77;2175065;81;21060;-78
2022/09/19 13:49:29;;;;;;;3.60;2.62;;;;;;;12.86;61.14;98250.24;2185896;81;20963;-78
2022/09/19 13:52:25;;;;;;;5.55;3.40;;;;;;;12.73;61.38;98255.56;2186947;81;21051;-79
2022/09/19 13:55:25;;;;;;;6.03;3.15;;;;;;;12.71;61.72;98265.17;2186150;81;21415;-77
2022/09/19 13:58:25;;;;;;;5.90;3.52;;;;;;;12.65;61.87;98267.83;2187078;81;20936;-77
2022/09/19 14:01:26;;;;;;;8.20;5.50;;;;;;;12.55;62.29;98271.81;2186662;81;20976;-77
2022/09/19 14:07:46;;;;;;;7.05;3.15;;;;;;;12.63;63.47;98277.44;2187389;81;21530;-79
2022/09/19 14:10:48;;;;;;;7.10;3.50;;;;;;;12.63;62.82;98283.98;2187159;81;20995;-78
2022/09/19 14:13:47;;;;;;;4.60;2.60;;;;;;;12.68;63.21;98279.59;2172381;81;21356;-79
2022/09/19 14:16:48;;;;;;;4.92;2.50;;;;;;;12.86;63.56;98281.67;2187280;81;21047;-78
2022/09/19 14:19:48;;;;;;;9.23;3.20;;;;;;;13.00;63.15;98278.12;2187141;81;20991;-78
2022/09/19 14:22:49;;;;;;;4.92;2.40;;;;;;;12.99;62.96;98283.33;2183330;81;21702;-78
2022/09/19 14:25:49;;;;;;;3.95;2.40;;;;;;;12.98;62.87;98276.35;2183069;81;21002;-78
2022/09/19 14:28:49;;;;;;;4.60;3.17;;;;;;;13.10;62.08;98279.36;2184813;81;20932;-78
2022/09/19 14:31:50;;;;;;;4.17;3.00;;;;;;;13.12;62.54;98275.84;2185461;81;21024;-79
2022/09/19 14:34:52;;;;;;;3.22;2.02;;;;;;;13.08;62.25;98273.69;2185475;81;21851;-78